createdAt,value
2019-03-27T00:01:03.923Z,4.90
2019-03-27T00:04:01.058Z,4.85
2019-03-27T00:06:58.181Z,4.75
2019-03-27T00:09:54.336Z,4.64
2019-03-27T00:12:51.863Z,4.58
2019-03-27T00:15:47.824Z,4.50
2019-03-27T00:18:45.009Z,4.41
2019-03-27T00:21:41.100Z,4.36
2019-03-27T00:24:38.453Z,4.34
2019-03-27T00:27:35.922Z,4.33
2019-03-27T00:30:32.350Z,4.40
2019-03-27T00:33:37.597Z,4.38
2019-03-27T00:36:33.716Z,4.32
2019-03-27T00:39:30.799Z,4.25
2019-03-27T00:42:27.978Z,4.17
2019-03-27T00:45:27.255Z,4.18
2019-03-27T00:48:23.304Z,4.22
2019-03-27T00:51:19.585Z,4.25
2019-03-27T00:54:17.525Z,4.24
2019-03-27T00:57:14.640Z,4.22
2019-03-27T01:00:11.879Z,4.20
2019-03-27T01:03:09.002Z,4.18
2019-03-27T01:06:06.383Z,4.18
2019-03-27T01:09:05.980Z,4.15
2019-03-27T01:12:03.334Z,4.11
2019-03-27T01:15:00.390Z,4.11
2019-03-27T01:17:56.449Z,4.12
2019-03-27T01:20:53.577Z,4.13
2019-03-27T01:23:50.517Z,4.14
2019-03-27T01:26:47.878Z,4.09
2019-03-27T01:29:43.906Z,4.08
2019-03-27T01:32:41.226Z,4.04
2019-03-27T01:35:38.314Z,3.97
2019-03-27T01:38:34.444Z,3.97
2019-03-27T01:41:31.766Z,4.00
2019-03-27T01:44:28.876Z,4.01
2019-03-27T01:47:26.099Z,4.03
2019-03-27T01:50:21.443Z,4.03
2019-03-27T01:53:19.412Z,4.02
2019-03-27T01:56:17.187Z,3.97
2019-03-27T01:59:14.619Z,3.93
2019-03-27T02:02:11.689Z,3.95
2019-03-27T02:05:09.028Z,3.95
2019-03-27T02:08:05.848Z,3.92
2019-03-27T02:11:01.745Z,3.92
2019-03-27T02:13:59.892Z,3.94
2019-03-27T02:16:56.235Z,3.96
2019-03-27T02:19:52.073Z,3.95
2019-03-27T02:22:49.596Z,3.96
2019-03-27T02:25:45.633Z,3.91
2019-03-27T02:28:43.009Z,3.89
2019-03-27T02:31:39.120Z,3.87
2019-03-27T02:34:36.277Z,3.88
2019-03-27T02:37:32.422Z,3.87
2019-03-27T02:40:29.663Z,3.87
2019-03-27T02:43:25.896Z,3.82
2019-03-27T02:46:24.883Z,3.82
2019-03-27T02:49:20.590Z,3.75
2019-03-27T02:52:16.948Z,3.75
2019-03-27T02:55:15.272Z,3.75
2019-03-27T02:58:12.119Z,3.72
2019-03-27T03:01:10.204Z,3.66
2019-03-27T03:04:08.278Z,3.65
2019-03-27T03:07:04.938Z,3.60
2019-03-27T03:10:01.209Z,3.60
2019-03-27T03:12:57.817Z,3.58
2019-03-27T03:15:55.722Z,3.59
2019-03-27T03:18:53.137Z,3.60
2019-03-27T03:21:50.218Z,3.55
2019-03-27T03:24:47.269Z,3.53
2019-03-27T03:27:44.532Z,3.49
2019-03-27T03:30:40.185Z,3.53
2019-03-27T03:33:37.201Z,3.53
2019-03-27T03:36:35.422Z,3.55
2019-03-27T03:39:31.145Z,3.58
2019-03-27T03:42:27.885Z,3.57
2019-03-27T03:45:24.526Z,3.56
2019-03-27T03:48:21.438Z,3.55
2019-03-27T03:51:17.498Z,3.54
2019-03-27T03:54:14.713Z,3.49
2019-03-27T03:57:11.776Z,3.49
2019-03-27T04:00:08.010Z,3.49
2019-03-27T04:03:06.149Z,3.52
2019-03-27T04:06:04.269Z,3.52
2019-03-27T04:09:01.418Z,3.52
2019-03-27T04:11:56.937Z,3.55
2019-03-27T04:14:53.992Z,3.54
2019-03-27T04:17:50.090Z,3.55
2019-03-27T04:20:47.447Z,3.57
2019-03-27T04:23:43.776Z,3.52
2019-03-27T04:26:41.842Z,3.50
2019-03-27T04:29:37.726Z,3.54
2019-03-27T04:32:34.739Z,3.56
2019-03-27T04:35:32.065Z,3.60
2019-03-27T04:38:28.189Z,3.58
2019-03-27T04:41:25.368Z,3.58
2019-03-27T04:44:21.701Z,3.53
2019-03-27T04:47:31.516Z,3.52
2019-03-27T04:50:15.742Z,3.53
2019-03-27T04:53:12.446Z,3.53
2019-03-27T04:56:08.541Z,3.50
2019-03-27T04:59:06.338Z,3.55
2019-03-27T05:02:02.671Z,3.58
2019-03-27T05:04:59.912Z,3.55
2019-03-27T05:07:57.153Z,3.57
2019-03-27T05:10:53.096Z,3.57
2019-03-27T05:13:50.242Z,3.55
2019-03-27T05:16:47.318Z,3.60
2019-03-27T05:19:44.059Z,3.60
2019-03-27T05:22:41.222Z,3.58
2019-03-27T05:25:37.032Z,3.63
2019-03-27T05:28:34.187Z,3.63
2019-03-27T05:31:31.016Z,3.65
2019-03-27T05:34:28.391Z,3.65
2019-03-27T05:37:25.539Z,3.65
2019-03-27T05:40:22.214Z,3.70
2019-03-27T05:43:19.334Z,3.66
2019-03-27T05:46:17.218Z,3.64
2019-03-27T05:49:14.567Z,3.61
2019-03-27T05:52:10.480Z,3.62
2019-03-27T05:55:07.650Z,3.66
2019-03-27T05:58:05.983Z,3.66
2019-03-27T06:01:03.035Z,3.66
2019-03-27T06:04:00.105Z,3.68
2019-03-27T06:07:00.156Z,3.67
2019-03-27T06:09:56.238Z,3.71
2019-03-27T06:12:53.692Z,3.73
2019-03-27T06:15:49.997Z,3.73
2019-03-27T06:18:47.343Z,3.76
2019-03-27T06:21:43.735Z,3.81
2019-03-27T06:24:40.948Z,3.85
2019-03-27T06:27:37.900Z,3.84
2019-03-27T06:30:34.927Z,3.89
2019-03-27T06:33:31.870Z,3.94
2019-03-27T06:36:27.940Z,3.99
2019-03-27T06:39:25.369Z,3.98
2019-03-27T06:42:26.686Z,4.01
2019-03-27T06:45:24.065Z,4.08
2019-03-27T06:48:26.347Z,4.13
2019-03-27T06:51:18.475Z,4.17
2019-03-27T06:54:14.584Z,4.22
2019-03-27T06:57:12.679Z,4.21
2019-03-27T07:00:08.508Z,4.26
2019-03-27T07:03:05.228Z,4.32
2019-03-27T07:06:02.533Z,4.36
2019-03-27T07:09:01.607Z,4.41
2019-03-27T07:11:58.870Z,4.49
2019-03-27T07:14:56.230Z,4.57
2019-03-27T07:17:54.544Z,4.65
2019-03-27T07:20:52.850Z,4.70
2019-03-27T07:23:48.700Z,4.77
2019-03-27T07:26:45.794Z,4.83
2019-03-27T07:29:42.026Z,4.90
2019-03-27T07:32:39.209Z,4.94
2019-03-27T07:35:35.467Z,4.94
2019-03-27T07:38:32.910Z,5.06
2019-03-27T07:41:30.158Z,5.10
2019-03-27T07:44:26.004Z,5.17
2019-03-27T07:47:23.002Z,5.25
2019-03-27T07:50:20.143Z,5.32
2019-03-27T07:53:16.385Z,5.35
2019-03-27T07:56:13.551Z,5.41
2019-03-27T07:59:10.929Z,5.39
2019-03-27T08:02:08.459Z,5.39
2019-03-27T08:05:04.321Z,5.46
2019-03-27T08:08:02.382Z,5.59
2019-03-27T08:10:59.768Z,5.76
2019-03-27T08:13:57.112Z,5.87
2019-03-27T08:16:53.448Z,6.02
2019-03-27T08:19:51.005Z,6.13
2019-03-27T08:22:49.402Z,6.10
2019-03-27T08:25:44.868Z,6.16
2019-03-27T08:28:42.764Z,6.18
2019-03-27T08:31:38.586Z,6.20
2019-03-27T08:34:35.509Z,6.26
2019-03-27T08:37:31.870Z,6.24
2019-03-27T08:40:30.013Z,6.32
2019-03-27T08:43:28.078Z,6.42
2019-03-27T08:46:24.148Z,6.53
2019-03-27T08:49:22.699Z,6.56
2019-03-27T08:52:18.557Z,6.52
2019-03-27T08:55:15.765Z,6.69
2019-03-27T08:58:11.986Z,6.82
2019-03-27T09:01:11.637Z,6.93
2019-03-27T09:04:07.586Z,7.00
2019-03-27T09:07:04.369Z,7.05
2019-03-27T09:10:02.526Z,7.13
2019-03-27T09:12:58.909Z,7.19
2019-03-27T09:15:55.184Z,7.31
2019-03-27T09:18:52.419Z,7.40
2019-03-27T09:21:49.442Z,7.52
2019-03-27T09:24:46.640Z,7.67
2019-03-27T09:27:41.828Z,7.76
2019-03-27T09:30:39.514Z,7.62
2019-03-27T09:33:36.555Z,7.62
2019-03-27T09:36:32.544Z,7.69
2019-03-27T09:39:32.215Z,7.72
2019-03-27T09:42:28.572Z,7.69
2019-03-27T09:45:25.806Z,7.65
2019-03-27T09:48:21.912Z,7.64
2019-03-27T09:51:19.663Z,7.66
2019-03-27T09:54:16.072Z,7.74
2019-03-27T09:57:13.130Z,7.87
2019-03-27T10:00:11.176Z,7.92
2019-03-27T10:03:08.087Z,7.99
2019-03-27T10:06:05.223Z,8.07
2019-03-27T10:09:02.292Z,8.13
2019-03-27T10:11:59.631Z,8.15
2019-03-27T10:14:57.031Z,8.16
2019-03-27T10:17:53.984Z,8.13
2019-03-27T10:20:51.578Z,8.08
2019-03-27T10:23:47.874Z,8.03
2019-03-27T10:26:44.854Z,7.99
2019-03-27T10:29:40.456Z,7.98
2019-03-27T10:32:37.569Z,7.93
2019-03-27T10:35:33.806Z,7.92
2019-03-27T10:38:31.190Z,7.95
2019-03-27T10:41:29.284Z,8.00
2019-03-27T10:44:25.551Z,7.92
2019-03-27T10:47:22.876Z,7.88
2019-03-27T10:50:18.956Z,8.01
2019-03-27T10:53:16.338Z,8.15
2019-03-27T10:56:12.228Z,8.24
2019-03-27T10:59:09.625Z,8.35
2019-03-27T11:02:06.774Z,8.49
2019-03-27T11:05:04.235Z,8.41
2019-03-27T11:08:00.316Z,8.54
2019-03-27T11:10:58.385Z,8.59
2019-03-27T11:13:55.546Z,8.69
2019-03-27T11:16:53.753Z,8.82
2019-03-27T11:19:50.485Z,8.89
2019-03-27T11:22:45.932Z,9.06
2019-03-27T11:25:43.036Z,9.32
2019-03-27T11:28:40.301Z,9.53
2019-03-27T11:31:39.684Z,9.57
2019-03-27T11:34:35.632Z,9.56
2019-03-27T11:37:32.710Z,9.60
2019-03-27T11:40:28.802Z,9.73
2019-03-27T11:43:25.840Z,9.82
2019-03-27T11:46:23.109Z,9.87
2019-03-27T11:49:19.204Z,10.01
2019-03-27T11:52:16.815Z,10.26
2019-03-27T11:55:12.717Z,10.13
2019-03-27T11:58:10.084Z,10.39
2019-03-27T12:01:06.313Z,10.34
2019-03-27T12:04:03.409Z,10.02
2019-03-27T12:06:59.717Z,10.06
2019-03-27T12:09:59.022Z,10.20
2019-03-27T12:12:55.120Z,10.37
2019-03-27T12:15:59.877Z,10.40
2019-03-27T12:18:58.060Z,10.52
2019-03-27T12:21:56.096Z,10.56
2019-03-27T12:24:53.183Z,10.45
2019-03-27T12:27:50.346Z,10.36
2019-03-27T12:30:48.919Z,10.39
2019-03-27T12:33:45.925Z,10.49
2019-03-27T12:36:42.871Z,10.42
2019-03-27T12:39:40.922Z,10.25
2019-03-27T12:42:37.757Z,10.28
2019-03-27T12:45:35.064Z,10.21
2019-03-27T12:48:31.073Z,10.14
2019-03-27T12:51:28.431Z,10.06
2019-03-27T12:54:24.437Z,9.94
2019-03-27T12:57:21.482Z,9.84
2019-03-27T13:00:17.153Z,9.75
2019-03-27T13:03:14.789Z,9.78
2019-03-27T13:06:13.102Z,9.76
2019-03-27T13:09:08.921Z,9.57
2019-03-27T13:12:08.209Z,9.42
2019-03-27T13:15:04.252Z,9.53
2019-03-27T13:18:01.131Z,9.66
2019-03-27T13:20:58.288Z,9.81
2019-03-27T13:23:54.552Z,9.94
2019-03-27T13:26:51.802Z,10.02
2019-03-27T13:29:48.852Z,10.01
2019-03-27T13:32:45.889Z,9.64
2019-03-27T13:35:43.026Z,9.64
2019-03-27T13:38:39.048Z,9.56
2019-03-27T13:41:36.093Z,9.47
2019-03-27T13:44:37.358Z,9.46
2019-03-27T13:47:31.232Z,9.44
2019-03-27T13:50:27.392Z,9.45
2019-03-27T13:53:24.647Z,9.41
2019-03-27T13:56:20.181Z,9.37
2019-03-27T13:59:17.453Z,9.37
2019-03-27T14:02:13.152Z,9.29
2019-03-27T14:05:10.416Z,9.25
2019-03-27T14:08:06.592Z,9.26
2019-03-27T14:11:04.692Z,9.26
2019-03-27T14:14:10.690Z,9.34
2019-03-27T14:16:57.470Z,9.44
2019-03-27T14:19:52.870Z,9.53
2019-03-27T14:22:50.067Z,9.57
2019-03-27T14:25:47.404Z,9.53
2019-03-27T14:28:43.537Z,9.45
2019-03-27T14:31:40.779Z,9.43
2019-03-27T14:34:36.847Z,9.49
2019-03-27T14:37:35.281Z,9.48
2019-03-27T14:40:31.355Z,9.40
2019-03-27T14:43:28.670Z,9.35
2019-03-27T14:46:25.407Z,9.37
2019-03-27T14:49:22.571Z,9.38
2019-03-27T14:52:19.695Z,9.37
2019-03-27T14:55:15.847Z,9.37
2019-03-27T14:58:13.726Z,9.37
2019-03-27T15:01:11.053Z,9.38
2019-03-27T15:04:09.270Z,9.42
2019-03-27T15:07:05.418Z,9.37
2019-03-27T15:10:02.476Z,9.37
2019-03-27T15:12:59.401Z,9.40
2019-03-27T15:15:57.330Z,9.40
2019-03-27T15:18:52.704Z,9.38
2019-03-27T15:21:49.227Z,9.37
2019-03-27T15:24:47.268Z,9.30
2019-03-27T15:27:44.386Z,9.31
2019-03-27T15:30:41.681Z,9.25
2019-03-27T15:33:38.942Z,9.19
2019-03-27T15:36:35.901Z,9.14
2019-03-27T15:39:32.217Z,9.07
2019-03-27T15:42:29.394Z,9.01
2019-03-27T15:45:27.669Z,8.94
2019-03-27T15:48:22.670Z,8.91
2019-03-27T15:51:19.830Z,8.86
2019-03-27T15:54:15.873Z,8.82
2019-03-27T15:57:14.316Z,8.79
2019-03-27T16:00:10.424Z,8.77
2019-03-27T16:03:07.476Z,8.75
2019-03-27T16:06:04.584Z,8.67
2019-03-27T16:09:01.969Z,8.62
2019-03-27T16:11:59.089Z,8.59
2019-03-27T16:14:56.805Z,8.57
2019-03-27T16:17:53.926Z,8.55
2019-03-27T16:20:49.988Z,8.46
2019-03-27T16:23:47.040Z,8.46
2019-03-27T16:26:44.106Z,8.43
2019-03-27T16:29:42.315Z,8.44
2019-03-27T16:32:38.073Z,8.41
2019-03-27T16:35:36.043Z,8.40
2019-03-27T16:38:33.050Z,8.40
2019-03-27T16:41:28.437Z,8.38
2019-03-27T16:44:26.487Z,8.38
2019-03-27T16:47:22.679Z,8.36
2019-03-27T16:50:19.819Z,8.35
2019-03-27T16:53:16.111Z,8.31
2019-03-27T16:56:14.663Z,8.27
2019-03-27T16:59:10.664Z,8.25
2019-03-27T17:02:07.902Z,8.19
2019-03-27T17:05:05.081Z,8.16
2019-03-27T17:08:01.314Z,8.13
2019-03-27T17:10:59.138Z,8.09
2019-03-27T17:13:55.416Z,8.04
2019-03-27T17:16:53.110Z,8.02
2019-03-27T17:19:49.231Z,7.99
2019-03-27T17:22:46.347Z,7.95
2019-03-27T17:25:43.458Z,7.92
2019-03-27T17:28:40.965Z,7.89
2019-03-27T17:31:38.123Z,7.85
2019-03-27T17:34:34.155Z,7.81
2019-03-27T17:37:33.960Z,7.79
2019-03-27T17:40:30.368Z,7.74
2019-03-27T17:43:27.441Z,7.72
2019-03-27T17:46:24.492Z,7.69
2019-03-27T17:49:21.881Z,7.65
2019-03-27T17:52:17.839Z,7.62
2019-03-27T17:55:14.924Z,7.60
2019-03-27T17:58:11.849Z,7.58
2019-03-27T18:01:09.334Z,7.58
2019-03-27T18:04:07.769Z,7.58
2019-03-27T18:07:05.083Z,7.54
2019-03-27T18:10:02.371Z,7.51
2019-03-27T18:13:03.141Z,7.47
2019-03-27T18:16:00.458Z,7.45
2019-03-27T18:19:01.307Z,7.43
2019-03-27T18:22:07.524Z,7.42
2019-03-27T18:24:59.817Z,7.41
2019-03-27T18:27:58.609Z,7.40
2019-03-27T18:30:55.219Z,7.39
2019-03-27T18:33:52.458Z,7.36
2019-03-27T18:36:49.003Z,7.35
2019-03-27T18:39:45.475Z,7.34
2019-03-27T18:42:42.932Z,7.32
2019-03-27T18:45:40.225Z,7.31
2019-03-27T18:48:38.560Z,7.30
2019-03-27T18:51:36.035Z,7.28
2019-03-27T18:54:33.818Z,7.26
2019-03-27T18:57:36.466Z,7.24
2019-03-27T19:00:32.978Z,7.20
2019-03-27T19:03:36.215Z,7.15
2019-03-27T19:06:27.518Z,7.13
2019-03-27T19:09:24.745Z,7.11
2019-03-27T19:12:23.342Z,7.09
2019-03-27T19:15:19.303Z,7.09
2019-03-27T19:18:16.833Z,7.03
2019-03-27T19:21:17.342Z,7.05
2019-03-27T19:24:16.817Z,7.04
2019-03-27T19:27:10.819Z,7.03
2019-03-27T19:30:08.245Z,7.01
2019-03-27T19:33:06.799Z,7.00
2019-03-27T19:36:02.998Z,7.00
2019-03-27T19:39:05.091Z,6.99
2019-03-27T19:42:02.728Z,6.98
2019-03-27T19:45:03.954Z,6.96
2019-03-27T19:48:09.447Z,6.97
2019-03-27T19:51:06.578Z,6.93
2019-03-27T19:54:06.824Z,6.94
2019-03-27T19:57:05.608Z,6.93
2019-03-27T20:00:03.069Z,6.94
2019-03-27T20:03:06.906Z,6.94
2019-03-27T20:06:16.261Z,6.92
2019-03-27T20:09:22.281Z,6.90
2019-03-27T20:12:18.324Z,6.88
2019-03-27T20:15:41.974Z,6.85
2019-03-27T20:18:34.753Z,6.82
2019-03-27T20:21:32.231Z,6.80
2019-03-27T20:24:40.378Z,6.78
2019-03-27T20:27:25.665Z,6.77
2019-03-27T20:30:26.981Z,6.75
2019-03-27T20:33:29.297Z,6.75
2019-03-27T20:36:27.720Z,6.75
2019-03-27T20:39:24.354Z,6.75
2019-03-27T20:42:20.828Z,6.75
2019-03-27T20:45:22.815Z,6.73
2019-03-27T20:48:19.794Z,6.74
2019-03-27T20:51:24.558Z,6.72
2019-03-27T20:54:23.739Z,6.71
2019-03-27T20:57:20.916Z,6.69
2019-03-27T21:00:18.321Z,6.67
2019-03-27T21:03:15.899Z,6.67
2019-03-27T21:06:12.413Z,6.64
2019-03-27T21:09:10.772Z,6.63
2019-03-27T21:12:12.994Z,6.59
2019-03-27T21:15:09.329Z,6.54
2019-03-27T21:18:06.785Z,6.54
2019-03-27T21:21:04.148Z,6.54
2019-03-27T21:24:02.947Z,6.53
2019-03-27T21:26:59.584Z,6.51
2019-03-27T21:29:58.904Z,6.48
2019-03-27T21:32:55.483Z,6.47
2019-03-27T21:35:59.416Z,6.45
2019-03-27T21:38:56.077Z,6.44
2019-03-27T21:41:53.370Z,6.43
2019-03-27T21:44:50.655Z,6.40
2019-03-27T21:47:47.094Z,6.40
2019-03-27T21:50:45.465Z,6.40
2019-03-27T21:53:42.835Z,6.39
2019-03-27T21:56:39.241Z,6.39
2019-03-27T21:59:37.741Z,6.39
2019-03-27T22:02:34.103Z,6.37
2019-03-27T22:05:32.127Z,6.37
2019-03-27T22:08:28.299Z,6.36
2019-03-27T22:11:26.751Z,6.34
2019-03-27T22:14:23.018Z,6.33
2019-03-27T22:17:20.416Z,6.30
2019-03-27T22:20:18.609Z,6.27
2019-03-27T22:23:15.006Z,6.25
2019-03-27T22:26:11.632Z,6.23
2019-03-27T22:29:07.885Z,6.22
2019-03-27T22:32:06.934Z,6.22
2019-03-27T22:35:02.328Z,6.18
2019-03-27T22:38:00.166Z,6.21
2019-03-27T22:40:56.270Z,6.22
2019-03-27T22:43:53.527Z,6.23
2019-03-27T22:46:50.696Z,6.23
2019-03-27T22:49:47.032Z,6.22
2019-03-27T22:52:44.415Z,6.20
2019-03-27T22:55:49.910Z,6.20
2019-03-27T22:58:37.968Z,6.17
2019-03-27T23:01:36.258Z,6.15
2019-03-27T23:04:33.434Z,6.13
2019-03-27T23:07:30.673Z,6.11
2019-03-27T23:10:27.715Z,6.08
2019-03-27T23:13:26.309Z,6.08
2019-03-27T23:16:22.436Z,6.07
2019-03-27T23:19:19.486Z,6.07
2019-03-27T23:22:16.640Z,6.06
2019-03-27T23:25:14.625Z,6.04
2019-03-27T23:28:11.245Z,6.02
2019-03-27T23:31:08.883Z,6.02
2019-03-27T23:34:06.083Z,6.02
2019-03-27T23:37:02.561Z,6.01
2019-03-27T23:40:00.468Z,6.00
2019-03-27T23:42:57.444Z,6.00
2019-03-27T23:45:54.790Z,5.98
2019-03-27T23:48:52.151Z,5.98
2019-03-27T23:51:50.434Z,5.96
2019-03-27T23:54:47.765Z,5.93
2019-03-27T23:57:43.623Z,5.91
